CheckWX is a tool to help pilots better visualize weather data.  It is not intended as a substitute for an official pre-flight weather briefing.

21:21:34 UTC

KHUT TAF
Hutchinson Regional Airport
Hutchinson, Kansas, USA
KHUT 211733Z 2118/2218 35014G22KT P6SM BKN025 TEMPO 2118/2121 OVC018 FM212300 02012KT P6SM BKN035 FM221000 01009KT 5SM -SN OVC018

Nov-21@
18:00 UTC

Nov-21 @ 18:00 UTC

Nov-21@
23:00 UTC

Nov-21 @ 23:00 UTC

KHUT 211733Z 2118/2218 35014G22KT P6SM BKN025
Wind
  • 350° at 14 KTS
  • {Gusting to 22 KTS
Cloud Levels
  • Broken at 2,500' AGL

Nov-21@
18:00 UTC

Nov-21 @ 18:00 UTC

Nov-21@
21:00 UTC

Nov-21 @ 21:00 UTC

TEMPO 2118/2121 OVC018

Expired

Cloud Levels
  • Overcast at 1,800' AGL

Nov-21@
23:00 UTC

Nov-21 @ 23:00 UTC

Nov-22@
10:00 UTC

Nov-22 @ 10:00 UTC

FM212300 02012KT P6SM BKN035

From

From Standard forecast or significant change

Wind
  • 020° at 12 KTS
Cloud Levels
  • Broken at 3,500' AGL

Nov-22@
10:00 UTC

Nov-22 @ 10:00 UTC

Nov-22@
18:00 UTC

Nov-22 @ 18:00 UTC

FM221000 01009KT 5SM -SN OVC018

From

From Standard forecast or significant change

Wind
  • 010° at 9 KTS
Conditions
Light Snow
Cloud Levels
  • Overcast at 1,800' AGL